sensor_id;sensor_type;location;lat;lon;timestamp;noise_LAeq;noise_LA_min;noise_LA_max;noise_LA01;noise_LA95
66589;Laerm;53447;49.272;11.070;2023-07-22T00:01:03;40.39;36.71;45.39;;
66589;Laerm;53447;49.272;11.070;2023-07-22T00:03:29;40.34;36.71;52.91;;
66589;Laerm;53447;49.272;11.070;2023-07-22T00:06:07;40.26;36.02;45.70;;
66589;Laerm;53447;49.272;11.070;2023-07-22T00:08:33;40.77;37.17;44.27;;
66589;Laerm;53447;49.272;11.070;2023-07-22T00:10:58;41.46;37.31;44.63;;
66589;Laerm;53447;49.272;11.070;2023-07-22T00:13:24;39.98;37.02;42.44;;
66589;Laerm;53447;49.272;11.070;2023-07-22T00:15:51;40.05;36.55;42.61;;
66589;Laerm;53447;49.272;11.070;2023-07-22T00:18:18;39.98;36.55;42.31;;
66589;Laerm;53447;49.272;11.070;2023-07-22T00:20:43;47.81;37.45;65.25;;
66589;Laerm;53447;49.272;11.070;2023-07-22T00:23:08;40.50;37.58;51.13;;
66589;Laerm;53447;49.272;11.070;2023-07-22T00:25:35;41.12;36.38;50.43;;
66589;Laerm;53447;49.272;11.070;2023-07-22T00:28:00;39.84;36.02;41.99;;
66589;Laerm;53447;49.272;11.070;2023-07-22T00:30:25;40.00;36.87;41.79;;
66589;Laerm;53447;49.272;11.070;2023-07-22T00:32:51;40.07;36.38;41.84;;
66589;Laerm;53447;49.272;11.070;2023-07-22T00:35:16;40.16;37.45;42.08;;
66589;Laerm;53447;49.272;11.070;2023-07-22T00:37:41;40.34;36.87;42.49;;
66589;Laerm;53447;49.272;11.070;2023-07-22T00:40:06;41.32;37.96;50.11;;
66589;Laerm;53447;49.272;11.070;2023-07-22T00:42:36;40.33;36.71;58.60;;
66589;Laerm;53447;49.272;11.070;2023-07-22T00:45:02;41.21;37.84;44.78;;
66589;Laerm;53447;49.272;11.070;2023-07-22T00:47:27;40.25;35.62;45.45;;
66589;Laerm;53447;49.272;11.070;2023-07-22T00:49:52;39.74;34.95;41.54;;
66589;Laerm;53447;49.272;11.070;2023-07-22T00:52:19;39.75;35.19;54.07;;
66589;Laerm;53447;49.272;11.070;2023-07-22T00:54:44;39.98;35.62;41.84;;
66589;Laerm;53447;49.272;11.070;2023-07-22T00:57:10;40.10;36.37;42.14;;
66589;Laerm;53447;49.272;11.070;2023-07-22T00:59:36;41.37;37.17;43.95;;
66589;Laerm;53447;49.272;11.070;2023-07-22T01:02:02;40.35;37.17;42.53;;
66589;Laerm;53447;49.272;11.070;2023-07-22T01:04:27;40.39;36.71;46.15;;
66589;Laerm;53447;49.272;11.070;2023-07-22T01:06:53;41.13;36.87;43.92;;
66589;Laerm;53447;49.272;11.070;2023-07-22T01:09:19;40.37;36.20;42.40;;
66589;Laerm;53447;49.272;11.070;2023-07-22T01:11:44;40.18;37.17;42.36;;
66589;Laerm;53447;49.272;11.070;2023-07-22T01:14:09;39.96;36.71;41.74;;
66589;Laerm;53447;49.272;11.070;2023-07-22T01:16:34;40.14;36.20;41.89;;
66589;Laerm;53447;49.272;11.070;2023-07-22T01:19:00;40.18;36.20;41.89;;
66589;Laerm;53447;49.272;11.070;2023-07-22T01:21:25;40.25;36.71;45.43;;
66589;Laerm;53447;49.272;11.070;2023-07-22T01:23:51;40.51;37.45;42.44;;
66589;Laerm;53447;49.272;11.070;2023-07-22T01:26:17;40.93;37.58;43.57;;
66589;Laerm;53447;49.272;11.070;2023-07-22T01:28:42;40.14;35.41;52.04;;
66589;Laerm;53447;49.272;11.070;2023-07-22T01:31:08;40.15;35.82;42.22;;
66589;Laerm;53447;49.272;11.070;2023-07-22T01:33:33;40.95;35.41;43.64;;
66589;Laerm;53447;49.272;11.070;2023-07-22T01:35:59;40.22;35.82;43.51;;
66589;Laerm;53447;49.272;11.070;2023-07-22T01:38:25;40.49;36.38;43.37;;
66589;Laerm;53447;49.272;11.070;2023-07-22T01:40:50;40.54;34.95;42.85;;
66589;Laerm;53447;49.272;11.070;2023-07-22T01:43:15;41.28;37.96;44.01;;
66589;Laerm;53447;49.272;11.070;2023-07-22T01:45:40;40.22;36.20;42.18;;
66589;Laerm;53447;49.272;11.070;2023-07-22T01:48:07;40.64;34.95;43.40;;
66589;Laerm;53447;49.272;11.070;2023-07-22T01:50:32;41.43;37.31;43.86;;
66589;Laerm;53447;49.272;11.070;2023-07-22T01:52:57;40.11;36.71;48.01;;
66589;Laerm;53447;49.272;11.070;2023-07-22T01:55:23;40.07;35.41;54.37;;
66589;Laerm;53447;49.272;11.070;2023-07-22T01:57:48;40.16;36.38;42.93;;
66589;Laerm;53447;49.272;11.070;2023-07-22T02:00:13;40.35;36.20;43.77;;
66589;Laerm;53447;49.272;11.070;2023-07-22T02:02:42;41.50;37.84;43.98;;
66589;Laerm;53447;49.272;11.070;2023-07-22T02:05:07;41.87;38.31;44.65;;
66589;Laerm;53447;49.272;11.070;2023-07-22T02:07:33;40.95;36.87;49.58;;
66589;Laerm;53447;49.272;11.070;2023-07-22T02:09:59;40.34;37.31;42.04;;
66589;Laerm;53447;49.272;11.070;2023-07-22T02:12:24;40.16;36.38;41.84;;
66589;Laerm;53447;49.272;11.070;2023-07-22T02:14:49;40.25;37.02;42.22;;
66589;Laerm;53447;49.272;11.070;2023-07-22T02:17:14;40.18;35.62;42.22;;
66589;Laerm;53447;49.272;11.070;2023-07-22T02:19:40;40.32;37.45;42.27;;
66589;Laerm;53447;49.272;11.070;2023-07-22T02:22:05;40.35;36.38;42.49;;
66589;Laerm;53447;49.272;11.070;2023-07-22T02:24:30;40.31;35.62;45.02;;
66589;Laerm;53447;49.272;11.070;2023-07-22T02:26:56;40.21;36.55;50.74;;
66589;Laerm;53447;49.272;11.070;2023-07-22T02:29:21;40.96;36.87;43.47;;
66589;Laerm;53447;49.272;11.070;2023-07-22T02:31:46;40.25;35.62;46.15;;
66589;Laerm;53447;49.272;11.070;2023-07-22T02:34:12;40.42;35.62;42.31;;
66589;Laerm;53447;49.272;11.070;2023-07-22T02:36:37;40.33;36.20;42.53;;
66589;Laerm;53447;49.272;11.070;2023-07-22T02:39:02;40.31;36.38;42.40;;
66589;Laerm;53447;49.272;11.070;2023-07-22T02:41:28;40.10;36.71;42.27;;
66589;Laerm;53447;49.272;11.070;2023-07-22T02:43:53;40.03;34.95;41.94;;
66589;Laerm;53447;49.272;11.070;2023-07-22T02:46:18;41.60;35.19;44.13;;
66589;Laerm;53447;49.272;11.070;2023-07-22T02:48:44;40.20;36.87;41.84;;
66589;Laerm;53447;49.272;11.070;2023-07-22T02:51:09;41.36;37.58;44.30;;
66589;Laerm;53447;49.272;11.070;2023-07-22T02:53:35;41.52;36.20;44.01;;
66589;Laerm;53447;49.272;11.070;2023-07-22T02:56:04;41.29;37.96;46.40;;
66589;Laerm;53447;49.272;11.070;2023-07-22T02:58:31;40.81;37.02;48.60;;
66589;Laerm;53447;49.272;11.070;2023-07-22T03:00:57;40.44;36.71;43.15;;
66589;Laerm;53447;49.272;11.070;2023-07-22T03:03:23;40.88;35.62;52.22;;
66589;Laerm;53447;49.272;11.070;2023-07-22T03:05:48;42.23;38.53;45.16;;
66589;Laerm;53447;49.272;11.070;2023-07-22T03:08:13;41.12;37.58;43.23;;
66589;Laerm;53447;49.272;11.070;2023-07-22T03:10:38;40.57;37.71;42.51;;
66589;Laerm;53447;49.272;11.070;2023-07-22T03:13:04;40.41;36.20;42.31;;
66589;Laerm;53447;49.272;11.070;2023-07-22T03:15:29;40.25;37.02;42.44;;
66589;Laerm;53447;49.272;11.070;2023-07-22T03:17:54;40.35;36.71;42.57;;
66589;Laerm;53447;49.272;11.070;2023-07-22T03:20:21;40.48;37.02;42.49;;
66589;Laerm;53447;49.272;11.070;2023-07-22T03:22:47;40.25;36.71;42.04;;
66589;Laerm;53447;49.272;11.070;2023-07-22T03:25:13;40.44;36.71;42.93;;
66589;Laerm;53447;49.272;11.070;2023-07-22T03:27:39;40.40;36.87;45.19;;
66589;Laerm;53447;49.272;11.070;2023-07-22T03:30:04;40.33;37.17;42.18;;
66589;Laerm;53447;49.272;11.070;2023-07-22T03:32:32;41.21;35.82;65.35;;
66589;Laerm;53447;49.272;11.070;2023-07-22T03:34:57;52.03;37.02;71.91;;
66589;Laerm;53447;49.272;11.070;2023-07-22T03:37:23;41.22;37.45;52.38;;
66589;Laerm;53447;49.272;11.070;2023-07-22T03:39:48;40.45;37.02;42.13;;
66589;Laerm;53447;49.272;11.070;2023-07-22T03:42:13;40.53;36.87;51.87;;
66589;Laerm;53447;49.272;11.070;2023-07-22T03:44:38;40.91;36.87;50.98;;
66589;Laerm;53447;49.272;11.070;2023-07-22T03:47:05;43.01;38.73;55.24;;
66589;Laerm;53447;49.272;11.070;2023-07-22T03:49:30;42.11;37.58;56.72;;
66589;Laerm;53447;49.272;11.070;2023-07-22T03:51:56;44.29;38.31;59.22;;
66589;Laerm;53447;49.272;11.070;2023-07-22T03:54:21;44.97;38.42;58.56;;
66589;Laerm;53447;49.272;11.070;2023-07-22T03:56:46;42.46;38.20;54.00;;
66589;Laerm;53447;49.272;11.070;2023-07-22T03:59:11;42.96;38.63;57.77;;
66589;Laerm;53447;49.272;11.070;2023-07-22T04:01:37;44.48;38.49;58.87;;
66589;Laerm;53447;49.272;11.070;2023-07-22T04:04:02;43.04;37.96;58.49;;
66589;Laerm;53447;49.272;11.070;2023-07-22T04:06:28;44.00;37.71;58.72;;
66589;Laerm;53447;49.272;11.070;2023-07-22T04:08:53;65.49;38.08;84.04;;
66589;Laerm;53447;49.272;11.070;2023-07-22T04:11:18;42.65;37.84;60.51;;
66589;Laerm;53447;49.272;11.070;2023-07-22T04:13:43;43.03;38.86;57.31;;
66589;Laerm;53447;49.272;11.070;2023-07-22T04:16:09;42.17;38.93;53.82;;
66589;Laerm;53447;49.272;11.070;2023-07-22T04:18:34;41.00;37.31;46.43;;
66589;Laerm;53447;49.272;11.070;2023-07-22T04:20:59;41.08;38.08;52.27;;
66589;Laerm;53447;49.272;11.070;2023-07-22T04:23:25;42.09;37.96;57.94;;
66589;Laerm;53447;49.272;11.070;2023-07-22T04:25:51;41.71;38.73;53.15;;
66589;Laerm;53447;49.272;11.070;2023-07-22T04:28:16;41.45;37.71;55.91;;
66589;Laerm;53447;49.272;11.070;2023-07-22T04:30:41;43.56;38.93;62.70;;
66589;Laerm;53447;49.272;11.070;2023-07-22T04:33:06;44.94;38.42;62.40;;
66589;Laerm;53447;49.272;11.070;2023-07-22T04:35:36;41.74;38.42;57.44;;
66589;Laerm;53447;49.272;11.070;2023-07-22T04:38:02;41.82;38.08;56.43;;
66589;Laerm;53447;49.272;11.070;2023-07-22T04:40:28;41.50;36.20;53.43;;
66589;Laerm;53447;49.272;11.070;2023-07-22T04:42:53;41.33;37.96;59.61;;
66589;Laerm;53447;49.272;11.070;2023-07-22T04:45:18;40.65;37.84;47.45;;
66589;Laerm;53447;49.272;11.070;2023-07-22T04:47:44;41.05;37.58;60.12;;
66589;Laerm;53447;49.272;11.070;2023-07-22T04:50:12;42.60;37.84;64.86;;
66589;Laerm;53447;49.272;11.070;2023-07-22T04:52:37;42.25;38.31;56.12;;
66589;Laerm;53447;49.272;11.070;2023-07-22T04:55:03;45.33;39.03;62.23;;
66589;Laerm;53447;49.272;11.070;2023-07-22T04:57:34;47.69;38.42;65.69;;
66589;Laerm;53447;49.272;11.070;2023-07-22T05:00:00;42.56;37.84;57.10;;
66589;Laerm;53447;49.272;11.070;2023-07-22T05:02:28;42.12;38.83;56.98;;
66589;Laerm;53447;49.272;11.070;2023-07-22T05:04:55;42.36;37.02;57.61;;
66589;Laerm;53447;49.272;11.070;2023-07-22T05:07:20;43.39;37.45;58.45;;
66589;Laerm;53447;49.272;11.070;2023-07-22T05:09:46;43.20;37.96;56.93;;
66589;Laerm;53447;49.272;11.070;2023-07-22T05:12:11;41.16;37.58;51.02;;
66589;Laerm;53447;49.272;11.070;2023-07-22T05:14:37;41.23;37.96;55.94;;
66589;Laerm;53447;49.272;11.070;2023-07-22T05:17:02;41.18;37.71;57.95;;
66589;Laerm;53447;49.272;11.070;2023-07-22T05:19:27;41.53;36.87;49.07;;
66589;Laerm;53447;49.272;11.070;2023-07-22T05:21:52;41.62;38.42;56.62;;
66589;Laerm;53447;49.272;11.070;2023-07-22T05:24:17;42.21;39.48;52.57;;
66589;Laerm;53447;49.272;11.070;2023-07-22T05:26:43;42.14;39.80;52.40;;
66589;Laerm;53447;49.272;11.070;2023-07-22T05:29:08;42.34;39.80;55.12;;
66589;Laerm;53447;49.272;11.070;2023-07-22T05:31:33;42.63;39.64;57.40;;
66589;Laerm;53447;49.272;11.070;2023-07-22T05:33:58;42.89;40.11;61.78;;
66589;Laerm;53447;49.272;11.070;2023-07-22T05:36:24;42.44;39.30;52.14;;
66589;Laerm;53447;49.272;11.070;2023-07-22T05:38:49;42.02;39.96;52.29;;
66589;Laerm;53447;49.272;11.070;2023-07-22T05:41:14;41.97;38.83;48.92;;
66589;Laerm;53447;49.272;11.070;2023-07-22T05:43:39;42.34;39.12;56.14;;
66589;Laerm;53447;49.272;11.070;2023-07-22T05:46:05;46.58;38.53;63.61;;
66589;Laerm;53447;49.272;11.070;2023-07-22T05:48:30;41.64;38.20;58.34;;
66589;Laerm;53447;49.272;11.070;2023-07-22T05:50:55;42.51;38.42;65.24;;
66589;Laerm;53447;49.272;11.070;2023-07-22T05:53:20;42.62;37.45;64.68;;
66589;Laerm;53447;49.272;11.070;2023-07-22T05:55:46;42.89;37.45;56.70;;
66589;Laerm;53447;49.272;11.070;2023-07-22T05:58:17;45.74;39.72;61.29;;
66589;Laerm;53447;49.272;11.070;2023-07-22T06:00:43;42.73;38.20;57.30;;
66589;Laerm;53447;49.272;11.070;2023-07-22T06:03:08;48.54;38.08;69.03;;
66589;Laerm;53447;49.272;11.070;2023-07-22T06:05:34;48.97;38.08;66.29;;
66589;Laerm;53447;49.272;11.070;2023-07-22T06:07:59;43.38;37.84;66.62;;
66589;Laerm;53447;49.272;11.070;2023-07-22T06:10:24;42.18;36.38;59.11;;
66589;Laerm;53447;49.272;11.070;2023-07-22T06:12:49;40.33;36.38;56.51;;
66589;Laerm;53447;49.272;11.070;2023-07-22T06:15:15;43.07;36.55;58.39;;
66589;Laerm;53447;49.272;11.070;2023-07-22T06:17:40;42.52;37.31;56.44;;
66589;Laerm;53447;49.272;11.070;2023-07-22T06:20:05;43.04;38.08;56.84;;
66589;Laerm;53447;49.272;11.070;2023-07-22T06:22:31;50.04;37.17;70.60;;
66589;Laerm;53447;49.272;11.070;2023-07-22T06:24:56;44.19;37.84;69.24;;
66589;Laerm;53447;49.272;11.070;2023-07-22T06:27:21;49.24;37.24;66.99;;
66589;Laerm;53447;49.272;11.070;2023-07-22T06:29:47;41.41;37.31;52.44;;
66589;Laerm;53447;49.272;11.070;2023-07-22T06:32:12;41.44;37.31;57.64;;
66589;Laerm;53447;49.272;11.070;2023-07-22T06:34:37;42.07;37.58;60.64;;
66589;Laerm;53447;49.272;11.070;2023-07-22T06:37:03;48.98;36.87;69.08;;
66589;Laerm;53447;49.272;11.070;2023-07-22T06:39:28;41.35;36.55;56.91;;
66589;Laerm;53447;49.272;11.070;2023-07-22T06:41:53;40.01;35.27;50.99;;
66589;Laerm;53447;49.272;11.070;2023-07-22T06:44:19;41.73;34.70;63.21;;
66589;Laerm;53447;49.272;11.070;2023-07-22T06:46:44;46.69;36.02;64.54;;
66589;Laerm;53447;49.272;11.070;2023-07-22T06:49:09;44.06;38.28;65.80;;
66589;Laerm;53447;49.272;11.070;2023-07-22T06:51:35;41.44;35.19;60.63;;
66589;Laerm;53447;49.272;11.070;2023-07-22T06:54:01;41.05;35.19;60.29;;
66589;Laerm;53447;49.272;11.070;2023-07-22T06:56:26;41.09;36.02;52.54;;
66589;Laerm;53447;49.272;11.070;2023-07-22T06:58:51;47.26;35.62;62.57;;
66589;Laerm;53447;49.272;11.070;2023-07-22T07:01:20;44.69;37.45;62.43;;
66589;Laerm;53447;49.272;11.070;2023-07-22T07:03:45;39.99;36.20;59.09;;
66589;Laerm;53447;49.272;11.070;2023-07-22T07:06:11;42.45;37.02;58.65;;
66589;Laerm;53447;49.272;11.070;2023-07-22T07:08:36;45.71;37.17;69.31;;
66589;Laerm;53447;49.272;11.070;2023-07-22T07:11:02;44.83;36.71;61.49;;
66589;Laerm;53447;49.272;11.070;2023-07-22T07:13:27;44.05;36.02;63.98;;
66589;Laerm;53447;49.272;11.070;2023-07-22T07:15:52;49.72;38.20;63.54;;
66589;Laerm;53447;49.272;11.070;2023-07-22T07:18:18;44.44;36.38;60.87;;
66589;Laerm;53447;49.272;11.070;2023-07-22T07:20:44;44.76;38.53;57.84;;
66589;Laerm;53447;49.272;11.070;2023-07-22T07:23:09;47.24;36.71;64.89;;
66589;Laerm;53447;49.272;11.070;2023-07-22T07:25:34;43.16;36.02;62.09;;
66589;Laerm;53447;49.272;11.070;2023-07-22T07:27:59;45.58;36.55;65.24;;
66589;Laerm;53447;49.272;11.070;2023-07-22T07:30:24;52.21;39.96;69.18;;
66589;Laerm;53447;49.272;11.070;2023-07-22T07:32:50;42.07;38.31;50.00;;
66589;Laerm;53447;49.272;11.070;2023-07-22T07:35:15;40.73;37.31;54.82;;
66589;Laerm;53447;49.272;11.070;2023-07-22T07:37:40;43.15;37.84;57.25;;
66589;Laerm;53447;49.272;11.070;2023-07-22T07:40:06;40.88;37.45;52.58;;
66589;Laerm;53447;49.272;11.070;2023-07-22T07:42:31;41.03;37.58;52.24;;
66589;Laerm;53447;49.272;11.070;2023-07-22T07:44:56;43.71;37.84;61.47;;
66589;Laerm;53447;49.272;11.070;2023-07-22T07:47:21;47.93;38.63;65.53;;
66589;Laerm;53447;49.272;11.070;2023-07-22T07:49:47;43.81;38.53;64.80;;
66589;Laerm;53447;49.272;11.070;2023-07-22T07:52:12;50.57;38.31;68.73;;
66589;Laerm;53447;49.272;11.070;2023-07-22T07:54:37;46.75;38.93;62.80;;
66589;Laerm;53447;49.272;11.070;2023-07-22T07:57:03;47.51;38.31;65.04;;
66589;Laerm;53447;49.272;11.070;2023-07-22T07:59:28;42.54;38.08;58.20;;
66589;Laerm;53447;49.272;11.070;2023-07-22T08:01:53;44.60;38.08;65.17;;
66589;Laerm;53447;49.272;11.070;2023-07-22T08:04:18;43.81;37.31;67.73;;
66589;Laerm;53447;49.272;11.070;2023-07-22T08:06:44;48.06;38.53;64.81;;
66589;Laerm;53447;49.272;11.070;2023-07-22T08:09:10;49.90;37.58;66.78;;
66589;Laerm;53447;49.272;11.070;2023-07-22T08:11:36;42.46;38.08;65.54;;
66589;Laerm;53447;49.272;11.070;2023-07-22T08:14:01;40.95;37.24;57.46;;
66589;Laerm;53447;49.272;11.070;2023-07-22T08:16:26;49.21;38.63;65.35;;
66589;Laerm;53447;49.272;11.070;2023-07-22T08:18:53;45.12;42.53;63.30;;
66589;Laerm;53447;49.272;11.070;2023-07-22T08:21:18;42.28;40.11;52.17;;
66589;Laerm;53447;49.272;11.070;2023-07-22T08:23:44;42.99;40.39;56.98;;
66589;Laerm;53447;49.272;11.070;2023-07-22T08:26:11;46.65;40.03;62.01;;
66589;Laerm;53447;49.272;11.070;2023-07-22T08:28:37;43.48;39.03;57.80;;
66589;Laerm;53447;49.272;11.070;2023-07-22T08:31:02;42.28;39.39;50.19;;
66589;Laerm;53447;49.272;11.070;2023-07-22T08:33:27;43.85;40.03;64.76;;
66589;Laerm;53447;49.272;11.070;2023-07-22T08:35:52;47.24;40.46;62.59;;
66589;Laerm;53447;49.272;11.070;2023-07-22T08:38:18;48.35;40.53;62.85;;
66589;Laerm;53447;49.272;11.070;2023-07-22T08:40:43;43.23;39.96;64.10;;
66589;Laerm;53447;49.272;11.070;2023-07-22T08:43:09;42.10;37.58;53.07;;
66589;Laerm;53447;49.272;11.070;2023-07-22T08:45:35;43.15;39.30;53.66;;
66589;Laerm;53447;49.272;11.070;2023-07-22T08:48:05;41.81;38.63;54.29;;
66589;Laerm;53447;49.272;11.070;2023-07-22T08:50:41;52.58;39.03;65.62;;
66589;Laerm;53447;49.272;11.070;2023-07-22T08:53:08;45.65;40.46;57.90;;
66589;Laerm;53447;49.272;11.070;2023-07-22T08:55:34;43.76;39.48;64.88;;
66589;Laerm;53447;49.272;11.070;2023-07-22T08:58:00;48.81;38.31;66.75;;
66589;Laerm;53447;49.272;11.070;2023-07-22T09:00:26;42.01;39.21;47.71;;
66589;Laerm;53447;49.272;11.070;2023-07-22T09:02:51;42.32;38.83;57.19;;
66589;Laerm;53447;49.272;11.070;2023-07-22T09:05:18;44.00;39.39;53.96;;
66589;Laerm;53447;49.272;11.070;2023-07-22T09:07:43;45.58;38.42;61.95;;
66589;Laerm;53447;49.272;11.070;2023-07-22T09:10:08;41.40;37.45;50.10;;
66589;Laerm;53447;49.272;11.070;2023-07-22T09:12:34;48.23;40.25;64.21;;
66589;Laerm;53447;49.272;11.070;2023-07-22T09:15:06;47.15;38.08;62.96;;
66589;Laerm;53447;49.272;11.070;2023-07-22T09:17:32;48.41;38.31;66.69;;
66589;Laerm;53447;49.272;11.070;2023-07-22T09:19:58;41.39;38.42;52.17;;
66589;Laerm;53447;49.272;11.070;2023-07-22T09:22:26;48.30;39.03;64.69;;
66589;Laerm;53447;49.272;11.070;2023-07-22T09:24:52;42.14;39.03;48.01;;
66589;Laerm;53447;49.272;11.070;2023-07-22T09:27:25;41.13;38.42;45.84;;
66589;Laerm;53447;49.272;11.070;2023-07-22T09:29:57;46.85;37.96;62.91;;
66589;Laerm;53447;49.272;11.070;2023-07-22T09:32:34;40.95;37.31;53.13;;
66589;Laerm;53447;49.272;11.070;2023-07-22T09:34:59;41.56;38.42;49.32;;
66589;Laerm;53447;49.272;11.070;2023-07-22T09:37:35;45.18;39.03;63.53;;
66589;Laerm;53447;49.272;11.070;2023-07-22T09:40:00;43.92;38.08;64.52;;
66589;Laerm;53447;49.272;11.070;2023-07-22T09:42:26;47.49;38.31;63.69;;
66589;Laerm;53447;49.272;11.070;2023-07-22T09:44:51;43.09;37.17;56.19;;
66589;Laerm;53447;49.272;11.070;2023-07-22T09:47:16;43.23;38.68;53.75;;
66589;Laerm;53447;49.272;11.070;2023-07-22T09:49:41;43.65;38.53;55.81;;
66589;Laerm;53447;49.272;11.070;2023-07-22T09:52:10;43.97;38.20;60.03;;
66589;Laerm;53447;49.272;11.070;2023-07-22T09:54:40;40.90;37.31;51.00;;
66589;Laerm;53447;49.272;11.070;2023-07-22T09:57:11;41.11;38.28;49.06;;
66589;Laerm;53447;49.272;11.070;2023-07-22T09:59:38;40.91;37.58;51.62;;
66589;Laerm;53447;49.272;11.070;2023-07-22T10:02:03;47.70;40.85;59.64;;
66589;Laerm;53447;49.272;11.070;2023-07-22T10:04:28;50.74;40.72;65.10;;
66589;Laerm;53447;49.272;11.070;2023-07-22T10:06:57;45.24;37.31;64.14;;
66589;Laerm;53447;49.272;11.070;2023-07-22T10:09:23;47.25;37.45;66.10;;
66589;Laerm;53447;49.272;11.070;2023-07-22T10:11:49;41.61;37.58;52.81;;
66589;Laerm;53447;49.272;11.070;2023-07-22T10:14:15;52.69;37.71;68.02;;
66589;Laerm;53447;49.272;11.070;2023-07-22T10:16:40;42.60;39.03;54.84;;
66589;Laerm;53447;49.272;11.070;2023-07-22T10:19:06;44.89;36.87;61.94;;
66589;Laerm;53447;49.272;11.070;2023-07-22T10:21:32;41.37;37.73;49.98;;
66589;Laerm;53447;49.272;11.070;2023-07-22T10:23:58;41.49;37.02;57.77;;
66589;Laerm;53447;49.272;11.070;2023-07-22T10:26:25;41.24;37.45;54.11;;
66589;Laerm;53447;49.272;11.070;2023-07-22T10:28:50;45.56;38.42;69.24;;
66589;Laerm;53447;49.272;11.070;2023-07-22T10:31:16;42.45;37.96;57.79;;
66589;Laerm;53447;49.272;11.070;2023-07-22T10:33:45;50.03;37.31;64.70;;
66589;Laerm;53447;49.272;11.070;2023-07-22T10:36:13;42.86;38.42;57.63;;
66589;Laerm;53447;49.272;11.070;2023-07-22T10:38:38;46.19;38.20;61.57;;
66589;Laerm;53447;49.272;11.070;2023-07-22T10:41:16;61.83;36.87;86.75;;
66589;Laerm;53447;49.272;11.070;2023-07-22T10:43:56;43.34;38.20;57.77;;
66589;Laerm;53447;49.272;11.070;2023-07-22T10:46:35;43.56;39.30;54.19;;
66589;Laerm;53447;49.272;11.070;2023-07-22T10:49:06;48.80;38.31;67.00;;
66589;Laerm;53447;49.272;11.070;2023-07-22T10:51:35;42.40;38.31;52.40;;
66589;Laerm;53447;49.272;11.070;2023-07-22T10:54:00;41.96;38.42;53.96;;
66589;Laerm;53447;49.272;11.070;2023-07-22T10:56:25;41.36;37.71;52.22;;
66589;Laerm;53447;49.272;11.070;2023-07-22T11:01:23;50.52;38.20;64.67;;
66589;Laerm;53447;49.272;11.070;2023-07-22T11:04:14;51.13;38.20;67.96;;
66589;Laerm;53447;49.272;11.070;2023-07-22T11:11:54;41.29;37.02;51.28;;
66589;Laerm;53447;49.272;11.070;2023-07-22T11:14:22;41.56;37.96;50.38;;
66589;Laerm;53447;49.272;11.070;2023-07-22T11:16:48;44.77;38.83;58.29;;
66589;Laerm;53447;49.272;11.070;2023-07-22T11:19:17;43.20;38.93;56.89;;
66589;Laerm;53447;49.272;11.070;2023-07-22T11:21:43;56.89;40.59;75.06;;
66589;Laerm;53447;49.272;11.070;2023-07-22T11:24:08;47.60;40.74;61.87;;
66589;Laerm;53447;49.272;11.070;2023-07-22T11:26:34;45.88;39.56;60.37;;
66589;Laerm;53447;49.272;11.070;2023-07-22T11:29:00;42.85;39.56;59.48;;
66589;Laerm;53447;49.272;11.070;2023-07-22T11:31:33;43.68;39.12;55.30;;
66589;Laerm;53447;49.272;11.070;2023-07-22T11:33:59;44.39;38.31;73.73;;
66589;Laerm;53447;49.272;11.070;2023-07-22T11:36:25;44.39;36.87;69.69;;
66589;Laerm;53447;49.272;11.070;2023-07-22T11:38:50;56.09;38.83;84.44;;
66589;Laerm;53447;49.272;11.070;2023-07-22T11:41:16;48.25;37.71;64.98;;
66589;Laerm;53447;49.272;11.070;2023-07-22T11:43:42;41.88;37.45;57.46;;
66589;Laerm;53447;49.272;11.070;2023-07-22T11:46:07;42.52;37.96;53.72;;
66589;Laerm;53447;49.272;11.070;2023-07-22T11:48:32;42.10;38.20;57.57;;
66589;Laerm;53447;49.272;11.070;2023-07-22T11:50:58;49.81;38.20;67.64;;
66589;Laerm;53447;49.272;11.070;2023-07-22T11:53:26;48.17;38.31;61.64;;
66589;Laerm;53447;49.272;11.070;2023-07-22T11:55:52;48.26;37.96;68.08;;
66589;Laerm;53447;49.272;11.070;2023-07-22T11:58:28;42.59;38.73;61.77;;
66589;Laerm;53447;49.272;11.070;2023-07-22T12:01:05;42.40;37.71;51.81;;
66589;Laerm;53447;49.272;11.070;2023-07-22T12:03:35;42.16;37.84;49.22;;
66589;Laerm;53447;49.272;11.070;2023-07-22T12:06:00;47.98;40.32;63.45;;
66589;Laerm;53447;49.272;11.070;2023-07-22T12:08:26;44.08;37.96;57.62;;
66589;Laerm;53447;49.272;11.070;2023-07-22T12:10:58;40.97;37.58;58.13;;
66589;Laerm;53447;49.272;11.070;2023-07-22T12:13:23;41.44;37.58;48.58;;
66589;Laerm;53447;49.272;11.070;2023-07-22T12:16:05;40.85;37.31;55.48;;
66589;Laerm;53447;49.272;11.070;2023-07-22T12:18:46;50.00;36.71;69.12;;
66589;Laerm;53447;49.272;11.070;2023-07-22T12:21:12;47.47;40.85;63.57;;
66589;Laerm;53447;49.272;11.070;2023-07-22T12:23:37;45.74;40.59;60.10;;
66589;Laerm;53447;49.272;11.070;2023-07-22T12:26:03;43.34;39.80;53.59;;
66589;Laerm;53447;49.272;11.070;2023-07-22T12:28:29;41.67;39.21;51.34;;
66589;Laerm;53447;49.272;11.070;2023-07-22T12:30:54;46.63;39.56;62.82;;
66589;Laerm;53447;49.272;11.070;2023-07-22T12:33:20;43.28;38.93;59.75;;
66589;Laerm;53447;49.272;11.070;2023-07-22T12:35:45;42.42;39.30;62.42;;
66589;Laerm;53447;49.272;11.070;2023-07-22T12:38:11;48.49;38.08;71.14;;
66589;Laerm;53447;49.272;11.070;2023-07-22T12:40:36;49.27;37.71;67.41;;
66589;Laerm;53447;49.272;11.070;2023-07-22T12:43:01;41.28;37.17;58.47;;
66589;Laerm;53447;49.272;11.070;2023-07-22T12:45:26;48.12;38.83;66.35;;
66589;Laerm;53447;49.272;11.070;2023-07-22T12:47:52;46.74;38.08;64.36;;
66589;Laerm;53447;49.272;11.070;2023-07-22T12:50:17;45.48;39.56;56.66;;
66589;Laerm;53447;49.272;11.070;2023-07-22T12:52:42;53.81;38.83;70.96;;
66589;Laerm;53447;49.272;11.070;2023-07-22T12:55:07;49.86;39.03;70.56;;
66589;Laerm;53447;49.272;11.070;2023-07-22T12:57:33;42.95;36.71;64.35;;
66589;Laerm;53447;49.272;11.070;2023-07-22T12:59:58;40.63;37.58;52.55;;
66589;Laerm;53447;49.272;11.070;2023-07-22T13:02:23;40.92;36.87;47.53;;
66589;Laerm;53447;49.272;11.070;2023-07-22T13:04:50;41.36;36.82;62.69;;
66589;Laerm;53447;49.272;11.070;2023-07-22T13:07:15;45.51;37.31;61.66;;
66589;Laerm;53447;49.272;11.070;2023-07-22T13:09:40;41.18;37.71;54.04;;
66589;Laerm;53447;49.272;11.070;2023-07-22T13:12:07;47.91;39.56;64.13;;
66589;Laerm;53447;49.272;11.070;2023-07-22T13:14:32;46.15;38.42;63.06;;
66589;Laerm;53447;49.272;11.070;2023-07-22T13:16:58;41.08;37.31;55.74;;
66589;Laerm;53447;49.272;11.070;2023-07-22T13:19:23;41.03;36.55;54.58;;
66589;Laerm;53447;49.272;11.070;2023-07-22T13:21:48;44.00;37.58;64.36;;
66589;Laerm;53447;49.272;11.070;2023-07-22T13:24:13;43.52;37.49;60.83;;
66589;Laerm;53447;49.272;11.070;2023-07-22T13:26:39;43.23;38.83;61.97;;
66589;Laerm;53447;49.272;11.070;2023-07-22T13:29:04;42.18;38.53;54.57;;
66589;Laerm;53447;49.272;11.070;2023-07-22T13:31:29;42.07;38.31;49.87;;
66589;Laerm;53447;49.272;11.070;2023-07-22T13:33:55;42.70;37.84;58.49;;